sensor_id;sensor_type;location;lat;lon;timestamp;temperature;humidity
73322;DHT22;61549;37.044;22.128;2022-12-07T00:01:31;17.90;52.70
73322;DHT22;61549;37.044;22.128;2022-12-07T00:04:01;17.90;52.80
73322;DHT22;61549;37.044;22.128;2022-12-07T00:06:36;17.90;53.50
73322;DHT22;61549;37.044;22.128;2022-12-07T00:09:03;17.90;54.70
73322;DHT22;61549;37.044;22.128;2022-12-07T00:11:29;17.90;53.10
73322;DHT22;61549;37.044;22.128;2022-12-07T00:13:58;17.80;53.00
73322;DHT22;61549;37.044;22.128;2022-12-07T00:16:26;17.80;52.80
73322;DHT22;61549;37.044;22.128;2022-12-07T00:18:53;17.80;52.50
73322;DHT22;61549;37.044;22.128;2022-12-07T00:21:21;17.80;52.20
73322;DHT22;61549;37.044;22.128;2022-12-07T00:23:49;17.80;52.00
73322;DHT22;61549;37.044;22.128;2022-12-07T00:26:19;17.80;52.60
73322;DHT22;61549;37.044;22.128;2022-12-07T00:28:53;17.80;52.90
73322;DHT22;61549;37.044;22.128;2022-12-07T00:31:22;17.80;52.50
73322;DHT22;61549;37.044;22.128;2022-12-07T00:33:49;17.80;52.80
73322;DHT22;61549;37.044;22.128;2022-12-07T00:36:19;17.80;52.80
73322;DHT22;61549;37.044;22.128;2022-12-07T00:38:54;17.80;52.80
73322;DHT22;61549;37.044;22.128;2022-12-07T00:41:22;17.90;53.30
73322;DHT22;61549;37.044;22.128;2022-12-07T00:43:49;17.90;53.60
73322;DHT22;61549;37.044;22.128;2022-12-07T00:46:16;17.90;53.10
73322;DHT22;61549;37.044;22.128;2022-12-07T00:48:42;17.90;53.80
73322;DHT22;61549;37.044;22.128;2022-12-07T00:51:11;17.90;53.30
73322;DHT22;61549;37.044;22.128;2022-12-07T00:53:38;17.80;52.40
73322;DHT22;61549;37.044;22.128;2022-12-07T00:56:07;17.80;52.20
73322;DHT22;61549;37.044;22.128;2022-12-07T00:58:36;17.80;52.90
73322;DHT22;61549;37.044;22.128;2022-12-07T01:01:03;17.80;53.00
73322;DHT22;61549;37.044;22.128;2022-12-07T01:03:29;17.80;53.10
73322;DHT22;61549;37.044;22.128;2022-12-07T01:05:56;17.80;53.10
73322;DHT22;61549;37.044;22.128;2022-12-07T01:08:24;17.90;53.20
73322;DHT22;61549;37.044;22.128;2022-12-07T01:10:58;17.90;53.20
73322;DHT22;61549;37.044;22.128;2022-12-07T01:13:25;17.90;53.10
73322;DHT22;61549;37.044;22.128;2022-12-07T01:15:51;17.90;52.70
73322;DHT22;61549;37.044;22.128;2022-12-07T01:18:17;17.90;52.50
73322;DHT22;61549;37.044;22.128;2022-12-07T01:20:42;17.90;52.60
73322;DHT22;61549;37.044;22.128;2022-12-07T01:23:08;17.90;52.00
73322;DHT22;61549;37.044;22.128;2022-12-07T01:25:34;17.90;52.50
73322;DHT22;61549;37.044;22.128;2022-12-07T01:28:00;17.90;52.30
73322;DHT22;61549;37.044;22.128;2022-12-07T01:30:26;17.80;52.30
73322;DHT22;61549;37.044;22.128;2022-12-07T01:32:52;17.90;52.20
73322;DHT22;61549;37.044;22.128;2022-12-07T01:35:17;17.80;51.50
73322;DHT22;61549;37.044;22.128;2022-12-07T01:37:43;17.80;52.00
73322;DHT22;61549;37.044;22.128;2022-12-07T01:40:10;17.90;52.50
73322;DHT22;61549;37.044;22.128;2022-12-07T01:42:36;17.90;53.00
73322;DHT22;61549;37.044;22.128;2022-12-07T01:48:06;18.00;54.70
73322;DHT22;61549;37.044;22.128;2022-12-07T01:50:34;17.90;53.70
73322;DHT22;61549;37.044;22.128;2022-12-07T01:53:03;17.80;53.10
73322;DHT22;61549;37.044;22.128;2022-12-07T01:55:32;17.90;52.80
73322;DHT22;61549;37.044;22.128;2022-12-07T01:57:59;17.90;53.00
73322;DHT22;61549;37.044;22.128;2022-12-07T02:00:25;17.90;52.90
73322;DHT22;61549;37.044;22.128;2022-12-07T02:03:02;17.90;52.80
73322;DHT22;61549;37.044;22.128;2022-12-07T02:05:29;17.90;52.70
73322;DHT22;61549;37.044;22.128;2022-12-07T02:07:56;17.90;52.90
73322;DHT22;61549;37.044;22.128;2022-12-07T02:10:28;18.00;54.10
73322;DHT22;61549;37.044;22.128;2022-12-07T02:13:03;18.00;54.50
73322;DHT22;61549;37.044;22.128;2022-12-07T02:16:25;17.90;53.50
73322;DHT22;61549;37.044;22.128;2022-12-07T02:21:24;17.90;52.80
73322;DHT22;61549;37.044;22.128;2022-12-07T02:35:11;17.90;53.20
73322;DHT22;61549;37.044;22.128;2022-12-07T02:40:40;18.00;53.50
73322;DHT22;61549;37.044;22.128;2022-12-07T02:43:33;17.90;52.40
73322;DHT22;61549;37.044;22.128;2022-12-07T02:46:07;18.00;52.40
73322;DHT22;61549;37.044;22.128;2022-12-07T02:48:34;18.00;52.60
73322;DHT22;61549;37.044;22.128;2022-12-07T02:51:01;18.00;52.70
73322;DHT22;61549;37.044;22.128;2022-12-07T02:53:38;18.00;52.40
73322;DHT22;61549;37.044;22.128;2022-12-07T03:04:45;17.90;52.70
73322;DHT22;61549;37.044;22.128;2022-12-07T03:07:34;17.90;52.90
73322;DHT22;61549;37.044;22.128;2022-12-07T03:15:35;17.90;56.20
73322;DHT22;61549;37.044;22.128;2022-12-07T03:18:07;18.00;56.70
73322;DHT22;61549;37.044;22.128;2022-12-07T03:20:35;17.90;57.60
73322;DHT22;61549;37.044;22.128;2022-12-07T03:23:05;17.90;57.20
73322;DHT22;61549;37.044;22.128;2022-12-07T03:25:34;17.90;56.80
73322;DHT22;61549;37.044;22.128;2022-12-07T03:28:06;17.90;55.60
73322;DHT22;61549;37.044;22.128;2022-12-07T03:30:49;17.90;55.00
73322;DHT22;61549;37.044;22.128;2022-12-07T03:33:31;17.80;55.20
73322;DHT22;61549;37.044;22.128;2022-12-07T03:36:09;17.80;54.60
73322;DHT22;61549;37.044;22.128;2022-12-07T03:38:45;17.80;54.00
73322;DHT22;61549;37.044;22.128;2022-12-07T03:41:33;17.90;54.00
73322;DHT22;61549;37.044;22.128;2022-12-07T03:44:01;17.90;54.20
73322;DHT22;61549;37.044;22.128;2022-12-07T03:49:25;17.90;54.40
73322;DHT22;61549;37.044;22.128;2022-12-07T03:52:11;17.90;53.50
73322;DHT22;61549;37.044;22.128;2022-12-07T03:54:49;17.90;54.10
73322;DHT22;61549;37.044;22.128;2022-12-07T03:57:18;17.90;54.50
73322;DHT22;61549;37.044;22.128;2022-12-07T03:59:45;17.90;53.10
73322;DHT22;61549;37.044;22.128;2022-12-07T04:02:13;17.90;53.20
73322;DHT22;61549;37.044;22.128;2022-12-07T04:04:41;18.00;55.10
73322;DHT22;61549;37.044;22.128;2022-12-07T04:07:10;18.00;56.00
73322;DHT22;61549;37.044;22.128;2022-12-07T04:09:36;18.00;56.30
73322;DHT22;61549;37.044;22.128;2022-12-07T04:12:02;18.00;56.70
73322;DHT22;61549;37.044;22.128;2022-12-07T04:14:28;18.00;57.40
73322;DHT22;61549;37.044;22.128;2022-12-07T04:16:56;18.00;57.90
73322;DHT22;61549;37.044;22.128;2022-12-07T04:19:30;18.00;57.50
73322;DHT22;61549;37.044;22.128;2022-12-07T04:21:57;17.90;57.30
73322;DHT22;61549;37.044;22.128;2022-12-07T04:24:24;17.90;57.30
73322;DHT22;61549;37.044;22.128;2022-12-07T04:26:51;17.80;57.30
73322;DHT22;61549;37.044;22.128;2022-12-07T04:29:19;17.80;57.40
73322;DHT22;61549;37.044;22.128;2022-12-07T04:31:45;17.90;57.90
73322;DHT22;61549;37.044;22.128;2022-12-07T04:34:11;17.90;57.40
73322;DHT22;61549;37.044;22.128;2022-12-07T04:36:38;17.80;56.00
73322;DHT22;61549;37.044;22.128;2022-12-07T04:39:06;17.80;55.50
73322;DHT22;61549;37.044;22.128;2022-12-07T04:41:32;17.80;55.10
73322;DHT22;61549;37.044;22.128;2022-12-07T04:44:01;17.80;55.20
73322;DHT22;61549;37.044;22.128;2022-12-07T04:46:29;17.80;55.80
73322;DHT22;61549;37.044;22.128;2022-12-07T04:48:56;17.90;55.90
73322;DHT22;61549;37.044;22.128;2022-12-07T04:51:24;17.80;55.60
73322;DHT22;61549;37.044;22.128;2022-12-07T04:53:54;17.80;55.70
73322;DHT22;61549;37.044;22.128;2022-12-07T04:56:21;17.80;54.90
73322;DHT22;61549;37.044;22.128;2022-12-07T04:58:48;17.80;54.40
73322;DHT22;61549;37.044;22.128;2022-12-07T05:01:15;17.80;54.00
73322;DHT22;61549;37.044;22.128;2022-12-07T05:03:42;17.80;53.60
73322;DHT22;61549;37.044;22.128;2022-12-07T05:06:08;17.80;53.70
73322;DHT22;61549;37.044;22.128;2022-12-07T05:08:34;17.80;53.60
73322;DHT22;61549;37.044;22.128;2022-12-07T05:11:01;17.80;53.60
73322;DHT22;61549;37.044;22.128;2022-12-07T05:13:28;17.80;54.10
73322;DHT22;61549;37.044;22.128;2022-12-07T05:15:54;17.80;54.80
73322;DHT22;61549;37.044;22.128;2022-12-07T05:18:20;17.80;54.70
73322;DHT22;61549;37.044;22.128;2022-12-07T05:20:47;17.80;54.30
73322;DHT22;61549;37.044;22.128;2022-12-07T05:23:13;17.80;53.80
73322;DHT22;61549;37.044;22.128;2022-12-07T05:25:39;17.70;53.60
73322;DHT22;61549;37.044;22.128;2022-12-07T05:28:05;17.70;53.60
73322;DHT22;61549;37.044;22.128;2022-12-07T05:30:32;17.80;53.80
73322;DHT22;61549;37.044;22.128;2022-12-07T05:33:02;17.70;53.70
73322;DHT22;61549;37.044;22.128;2022-12-07T05:35:28;17.70;54.10
73322;DHT22;61549;37.044;22.128;2022-12-07T05:37:55;17.60;54.10
73322;DHT22;61549;37.044;22.128;2022-12-07T05:40:21;17.50;55.50
73322;DHT22;61549;37.044;22.128;2022-12-07T05:42:47;17.60;57.10
73322;DHT22;61549;37.044;22.128;2022-12-07T05:45:13;17.80;57.30
73322;DHT22;61549;37.044;22.128;2022-12-07T05:47:39;17.80;57.30
73322;DHT22;61549;37.044;22.128;2022-12-07T05:50:06;17.70;55.00
73322;DHT22;61549;37.044;22.128;2022-12-07T05:52:32;17.60;55.90
73322;DHT22;61549;37.044;22.128;2022-12-07T05:54:58;17.60;57.20
73322;DHT22;61549;37.044;22.128;2022-12-07T05:57:25;17.60;57.70
73322;DHT22;61549;37.044;22.128;2022-12-07T05:59:51;17.60;57.70
73322;DHT22;61549;37.044;22.128;2022-12-07T06:02:17;17.60;58.10
73322;DHT22;61549;37.044;22.128;2022-12-07T06:04:45;17.60;58.40
73322;DHT22;61549;37.044;22.128;2022-12-07T06:07:15;17.50;58.30
73322;DHT22;61549;37.044;22.128;2022-12-07T06:09:41;17.50;59.10
73322;DHT22;61549;37.044;22.128;2022-12-07T06:12:10;17.50;59.30
73322;DHT22;61549;37.044;22.128;2022-12-07T06:14:54;17.50;58.80
73322;DHT22;61549;37.044;22.128;2022-12-07T06:17:20;17.50;58.30
73322;DHT22;61549;37.044;22.128;2022-12-07T06:19:46;17.50;58.00
73322;DHT22;61549;37.044;22.128;2022-12-07T06:22:12;17.60;57.60
73322;DHT22;61549;37.044;22.128;2022-12-07T06:24:39;17.60;57.10
73322;DHT22;61549;37.044;22.128;2022-12-07T06:27:05;17.70;56.70
73322;DHT22;61549;37.044;22.128;2022-12-07T06:29:31;17.70;56.40
73322;DHT22;61549;37.044;22.128;2022-12-07T06:31:58;17.70;56.30
73322;DHT22;61549;37.044;22.128;2022-12-07T06:34:25;17.80;56.20
73322;DHT22;61549;37.044;22.128;2022-12-07T06:36:51;17.90;56.30
73322;DHT22;61549;37.044;22.128;2022-12-07T06:39:20;18.00;56.40
73322;DHT22;61549;37.044;22.128;2022-12-07T06:41:46;18.00;56.50
73322;DHT22;61549;37.044;22.128;2022-12-07T06:44:12;18.10;56.50
73322;DHT22;61549;37.044;22.128;2022-12-07T06:46:38;18.10;56.50
73322;DHT22;61549;37.044;22.128;2022-12-07T06:49:10;18.20;56.70
73322;DHT22;61549;37.044;22.128;2022-12-07T06:51:36;18.20;57.00
73322;DHT22;61549;37.044;22.128;2022-12-07T06:54:07;18.20;57.40
73322;DHT22;61549;37.044;22.128;2022-12-07T06:56:33;18.30;58.00
73322;DHT22;61549;37.044;22.128;2022-12-07T06:58:59;18.30;58.10
73322;DHT22;61549;37.044;22.128;2022-12-07T07:01:24;18.30;58.30
73322;DHT22;61549;37.044;22.128;2022-12-07T07:03:50;18.30;58.30
73322;DHT22;61549;37.044;22.128;2022-12-07T07:06:16;18.30;58.90
73322;DHT22;61549;37.044;22.128;2022-12-07T07:08:42;18.30;58.90
73322;DHT22;61549;37.044;22.128;2022-12-07T07:11:14;18.30;59.20
73322;DHT22;61549;37.044;22.128;2022-12-07T07:13:40;18.30;59.00
73322;DHT22;61549;37.044;22.128;2022-12-07T07:16:06;18.30;59.50
73322;DHT22;61549;37.044;22.128;2022-12-07T07:18:32;18.30;58.60
73322;DHT22;61549;37.044;22.128;2022-12-07T07:20:58;18.30;57.80
73322;DHT22;61549;37.044;22.128;2022-12-07T07:23:24;18.40;57.60
73322;DHT22;61549;37.044;22.128;2022-12-07T07:25:50;18.40;57.40
73322;DHT22;61549;37.044;22.128;2022-12-07T07:28:16;18.40;56.90
73322;DHT22;61549;37.044;22.128;2022-12-07T07:30:42;18.40;57.10
73322;DHT22;61549;37.044;22.128;2022-12-07T07:33:09;18.50;57.20
73322;DHT22;61549;37.044;22.128;2022-12-07T07:35:36;18.60;57.20
73322;DHT22;61549;37.044;22.128;2022-12-07T07:38:02;18.60;57.60
73322;DHT22;61549;37.044;22.128;2022-12-07T07:40:28;18.70;57.60
73322;DHT22;61549;37.044;22.128;2022-12-07T07:42:55;18.90;57.60
73322;DHT22;61549;37.044;22.128;2022-12-07T07:45:22;19.00;57.30
73322;DHT22;61549;37.044;22.128;2022-12-07T07:47:48;19.10;56.30
73322;DHT22;61549;37.044;22.128;2022-12-07T07:50:16;19.20;58.20
73322;DHT22;61549;37.044;22.128;2022-12-07T07:52:42;19.30;58.70
73322;DHT22;61549;37.044;22.128;2022-12-07T07:55:08;19.40;58.40
73322;DHT22;61549;37.044;22.128;2022-12-07T07:57:36;19.50;59.00
73322;DHT22;61549;37.044;22.128;2022-12-07T08:00:05;19.70;58.50
73322;DHT22;61549;37.044;22.128;2022-12-07T08:02:31;19.90;57.70
73322;DHT22;61549;37.044;22.128;2022-12-07T08:04:57;20.00;56.90
73322;DHT22;61549;37.044;22.128;2022-12-07T08:07:23;20.10;56.90
73322;DHT22;61549;37.044;22.128;2022-12-07T08:09:54;20.20;57.30
73322;DHT22;61549;37.044;22.128;2022-12-07T08:12:19;20.30;56.50
73322;DHT22;61549;37.044;22.128;2022-12-07T08:14:45;20.30;55.50
73322;DHT22;61549;37.044;22.128;2022-12-07T08:17:12;20.30;54.90
73322;DHT22;61549;37.044;22.128;2022-12-07T08:19:38;20.20;54.90
73322;DHT22;61549;37.044;22.128;2022-12-07T08:22:04;20.20;55.10
73322;DHT22;61549;37.044;22.128;2022-12-07T08:24:32;20.00;54.80
73322;DHT22;61549;37.044;22.128;2022-12-07T08:26:59;20.00;54.40
73322;DHT22;61549;37.044;22.128;2022-12-07T08:29:25;19.80;54.70
73322;DHT22;61549;37.044;22.128;2022-12-07T08:31:51;19.70;55.30
73322;DHT22;61549;37.044;22.128;2022-12-07T08:34:17;19.70;56.90
73322;DHT22;61549;37.044;22.128;2022-12-07T08:36:43;19.60;58.50
73322;DHT22;61549;37.044;22.128;2022-12-07T08:39:08;19.50;60.10
73322;DHT22;61549;37.044;22.128;2022-12-07T08:41:36;19.40;61.10
73322;DHT22;61549;37.044;22.128;2022-12-07T08:44:02;19.30;61.30
73322;DHT22;61549;37.044;22.128;2022-12-07T08:46:38;19.20;61.60
73322;DHT22;61549;37.044;22.128;2022-12-07T08:49:27;19.10;62.30
73322;DHT22;61549;37.044;22.128;2022-12-07T08:51:56;19.10;62.70
73322;DHT22;61549;37.044;22.128;2022-12-07T08:54:23;19.00;63.00
73322;DHT22;61549;37.044;22.128;2022-12-07T08:56:50;18.90;64.30
73322;DHT22;61549;37.044;22.128;2022-12-07T08:59:18;18.90;65.80
73322;DHT22;61549;37.044;22.128;2022-12-07T09:01:45;18.90;66.90
73322;DHT22;61549;37.044;22.128;2022-12-07T09:04:11;18.80;67.40
73322;DHT22;61549;37.044;22.128;2022-12-07T09:06:37;18.70;68.00
73322;DHT22;61549;37.044;22.128;2022-12-07T09:09:07;18.70;68.50
73322;DHT22;61549;37.044;22.128;2022-12-07T09:11:35;18.70;68.20
73322;DHT22;61549;37.044;22.128;2022-12-07T09:14:01;18.60;68.40
73322;DHT22;61549;37.044;22.128;2022-12-07T09:16:27;18.50;68.50
73322;DHT22;61549;37.044;22.128;2022-12-07T09:18:53;18.50;68.30
73322;DHT22;61549;37.044;22.128;2022-12-07T09:21:21;18.40;67.80
73322;DHT22;61549;37.044;22.128;2022-12-07T09:23:46;18.50;67.30
73322;DHT22;61549;37.044;22.128;2022-12-07T09:26:12;18.30;67.40
73322;DHT22;61549;37.044;22.128;2022-12-07T09:28:38;18.30;67.70
73322;DHT22;61549;37.044;22.128;2022-12-07T09:31:04;18.30;68.00
73322;DHT22;61549;37.044;22.128;2022-12-07T09:33:32;18.30;68.30
73322;DHT22;61549;37.044;22.128;2022-12-07T09:35:58;18.30;68.50
73322;DHT22;61549;37.044;22.128;2022-12-07T09:38:24;18.30;68.70
73322;DHT22;61549;37.044;22.128;2022-12-07T09:40:53;18.30;68.70
73322;DHT22;61549;37.044;22.128;2022-12-07T09:43:22;18.40;68.80
73322;DHT22;61549;37.044;22.128;2022-12-07T09:45:52;18.30;69.20
73322;DHT22;61549;37.044;22.128;2022-12-07T09:48:25;18.30;69.90
73322;DHT22;61549;37.044;22.128;2022-12-07T09:50:58;18.30;70.40
73322;DHT22;61549;37.044;22.128;2022-12-07T09:53:33;18.30;70.90
73322;DHT22;61549;37.044;22.128;2022-12-07T09:56:03;18.40;71.20
73322;DHT22;61549;37.044;22.128;2022-12-07T09:58:31;18.40;71.30
73322;DHT22;61549;37.044;22.128;2022-12-07T10:01:20;18.40;71.60
73322;DHT22;61549;37.044;22.128;2022-12-07T10:06:35;18.40;71.50
73322;DHT22;61549;37.044;22.128;2022-12-07T10:09:01;18.40;71.00
73322;DHT22;61549;37.044;22.128;2022-12-07T10:11:28;18.50;70.90
73322;DHT22;61549;37.044;22.128;2022-12-07T10:13:54;18.40;70.90
73322;DHT22;61549;37.044;22.128;2022-12-07T10:16:52;18.30;71.10
73322;DHT22;61549;37.044;22.128;2022-12-07T10:19:23;18.30;69.40
73322;DHT22;61549;37.044;22.128;2022-12-07T10:24:38;18.20;70.30
73322;DHT22;61549;37.044;22.128;2022-12-07T10:27:32;18.00;72.20
73322;DHT22;61549;37.044;22.128;2022-12-07T10:30:01;18.00;73.70
73322;DHT22;61549;37.044;22.128;2022-12-07T10:32:36;18.00;73.80
73322;DHT22;61549;37.044;22.128;2022-12-07T10:35:29;18.10;74.10
73322;DHT22;61549;37.044;22.128;2022-12-07T10:37:59;18.20;74.20
73322;DHT22;61549;37.044;22.128;2022-12-07T10:46:13;18.40;74.80
73322;DHT22;61549;37.044;22.128;2022-12-07T10:57:28;18.50;75.00
73322;DHT22;61549;37.044;22.128;2022-12-07T11:00:19;18.50;75.00
73322;DHT22;61549;37.044;22.128;2022-12-07T11:03:06;18.50;74.70
73322;DHT22;61549;37.044;22.128;2022-12-07T11:05:49;18.50;74.20
73322;DHT22;61549;37.044;22.128;2022-12-07T11:11:14;18.50;73.90
73322;DHT22;61549;37.044;22.128;2022-12-07T11:22:04;18.50;73.50
73322;DHT22;61549;37.044;22.128;2022-12-07T11:25:02;18.50;73.00
73322;DHT22;61549;37.044;22.128;2022-12-07T11:27:48;18.50;72.80
73322;DHT22;61549;37.044;22.128;2022-12-07T11:30:32;18.50;72.80
73322;DHT22;61549;37.044;22.128;2022-12-07T11:33:41;18.50;73.00
73322;DHT22;61549;37.044;22.128;2022-12-07T11:36:38;18.50;72.80
73322;DHT22;61549;37.044;22.128;2022-12-07T11:39:33;18.40;72.50
73322;DHT22;61549;37.044;22.128;2022-12-07T11:42:15;18.40;71.10
73322;DHT22;61549;37.044;22.128;2022-12-07T11:56:06;18.40;69.60
73322;DHT22;61549;37.044;22.128;2022-12-07T12:06:37;18.10;69.50
73322;DHT22;61549;37.044;22.128;2022-12-07T12:14:46;18.40;71.70
73322;DHT22;61549;37.044;22.128;2022-12-07T12:17:33;18.30;70.50
73322;DHT22;61549;37.044;22.128;2022-12-07T12:25:39;18.50;71.20
73322;DHT22;61549;37.044;22.128;2022-12-07T12:28:06;18.60;70.00
73322;DHT22;61549;37.044;22.128;2022-12-07T12:30:43;18.60;69.20
73322;DHT22;61549;37.044;22.128;2022-12-07T12:33:29;18.60;69.20
73322;DHT22;61549;37.044;22.128;2022-12-07T12:49:41;18.90;72.60
73322;DHT22;61549;37.044;22.128;2022-12-07T12:57:34;19.00;72.20
73322;DHT22;61549;37.044;22.128;2022-12-07T13:00:21;18.90;70.10
73322;DHT22;61549;37.044;22.128;2022-12-07T13:02:56;18.90;70.60
73322;DHT22;61549;37.044;22.128;2022-12-07T13:05:31;19.00;71.20
73322;DHT22;61549;37.044;22.128;2022-12-07T13:13:00;19.20;70.00
73322;DHT22;61549;37.044;22.128;2022-12-07T13:18:48;19.50;71.10
73322;DHT22;61549;37.044;22.128;2022-12-07T13:26:39;19.70;67.40
73322;DHT22;61549;37.044;22.128;2022-12-07T13:29:20;19.80;67.40
73322;DHT22;61549;37.044;22.128;2022-12-07T13:31:55;19.80;67.10
73322;DHT22;61549;37.044;22.128;2022-12-07T13:34:35;19.80;64.40
73322;DHT22;61549;37.044;22.128;2022-12-07T13:37:13;19.80;64.50
73322;DHT22;61549;37.044;22.128;2022-12-07T13:39:51;19.90;64.70
73322;DHT22;61549;37.044;22.128;2022-12-07T13:44:52;19.90;64.40
73322;DHT22;61549;37.044;22.128;2022-12-07T13:47:43;19.90;65.00
73322;DHT22;61549;37.044;22.128;2022-12-07T13:50:27;19.90;65.70
73322;DHT22;61549;37.044;22.128;2022-12-07T13:52:57;19.90;67.20
73322;DHT22;61549;37.044;22.128;2022-12-07T13:55:24;19.90;67.00
73322;DHT22;61549;37.044;22.128;2022-12-07T13:57:52;19.90;65.70
73322;DHT22;61549;37.044;22.128;2022-12-07T14:00:22;19.90;65.70
73322;DHT22;61549;37.044;22.128;2022-12-07T14:03:00;19.90;67.50
73322;DHT22;61549;37.044;22.128;2022-12-07T14:05:28;19.90;68.90
73322;DHT22;61549;37.044;22.128;2022-12-07T14:07:59;19.90;70.10
73322;DHT22;61549;37.044;22.128;2022-12-07T14:10:29;19.90;69.90
73322;DHT22;61549;37.044;22.128;2022-12-07T14:12:56;19.80;69.40
73322;DHT22;61549;37.044;22.128;2022-12-07T14:15:26;19.80;70.10
73322;DHT22;61549;37.044;22.128;2022-12-07T14:17:54;19.80;70.60
73322;DHT22;61549;37.044;22.128;2022-12-07T14:20:38;19.70;70.50
73322;DHT22;61549;37.044;22.128;2022-12-07T14:23:06;19.60;70.30
73322;DHT22;61549;37.044;22.128;2022-12-07T14:25:46;19.60;70.10
73322;DHT22;61549;37.044;22.128;2022-12-07T14:28:27;19.50;69.90
73322;DHT22;61549;37.044;22.128;2022-12-07T14:30:53;19.60;70.90
73322;DHT22;61549;37.044;22.128;2022-12-07T14:33:20;19.50;71.60
73322;DHT22;61549;37.044;22.128;2022-12-07T14:35:46;19.50;72.10
73322;DHT22;61549;37.044;22.128;2022-12-07T14:38:12;19.40;72.50
73322;DHT22;61549;37.044;22.128;2022-12-07T14:40:38;19.40;72.70
73322;DHT22;61549;37.044;22.128;2022-12-07T14:43:15;19.40;72.60
73322;DHT22;61549;37.044;22.128;2022-12-07T14:45:41;19.30;72.70
73322;DHT22;61549;37.044;22.128;2022-12-07T14:48:11;19.30;73.00
73322;DHT22;61549;37.044;22.128;2022-12-07T14:50:45;19.20;73.00
73322;DHT22;61549;37.044;22.128;2022-12-07T14:53:16;19.20;73.10
73322;DHT22;61549;37.044;22.128;2022-12-07T14:55:43;19.20;73.20
73322;DHT22;61549;37.044;22.128;2022-12-07T14:58:14;19.20;73.40
73322;DHT22;61549;37.044;22.128;2022-12-07T15:00:40;19.10;73.40
73322;DHT22;61549;37.044;22.128;2022-12-07T15:03:07;19.10;73.50
73322;DHT22;61549;37.044;22.128;2022-12-07T15:05:37;19.10;73.40
73322;DHT22;61549;37.044;22.128;2022-12-07T15:08:26;19.10;73.20
73322;DHT22;61549;37.044;22.128;2022-12-07T15:10:52;19.10;73.00
73322;DHT22;61549;37.044;22.128;2022-12-07T15:13:18;19.00;73.10
73322;DHT22;61549;37.044;22.128;2022-12-07T15:16:08;18.90;73.40
73322;DHT22;61549;37.044;22.128;2022-12-07T15:18:37;18.90;73.20
73322;DHT22;61549;37.044;22.128;2022-12-07T15:21:03;18.90;73.10
73322;DHT22;61549;37.044;22.128;2022-12-07T15:23:30;18.90;73.00
73322;DHT22;61549;37.044;22.128;2022-12-07T15:26:02;18.80;72.50
73322;DHT22;61549;37.044;22.128;2022-12-07T15:31:51;18.70;72.00
73322;DHT22;61549;37.044;22.128;2022-12-07T15:34:17;18.70;71.60
73322;DHT22;61549;37.044;22.128;2022-12-07T15:36:43;18.60;71.30
73322;DHT22;61549;37.044;22.128;2022-12-07T15:39:09;18.70;71.20
73322;DHT22;61549;37.044;22.128;2022-12-07T15:41:35;18.60;71.10
73322;DHT22;61549;37.044;22.128;2022-12-07T15:44:01;18.60;70.80
73322;DHT22;61549;37.044;22.128;2022-12-07T15:46:53;18.60;70.50
73322;DHT22;61549;37.044;22.128;2022-12-07T15:49:19;18.60;70.40
73322;DHT22;61549;37.044;22.128;2022-12-07T15:51:45;18.60;70.50
73322;DHT22;61549;37.044;22.128;2022-12-07T15:54:26;18.50;70.70
73322;DHT22;61549;37.044;22.128;2022-12-07T15:56:53;18.50;70.50
73322;DHT22;61549;37.044;22.128;2022-12-07T15:59:19;18.50;70.70
73322;DHT22;61549;37.044;22.128;2022-12-07T16:01:45;18.50;70.80
73322;DHT22;61549;37.044;22.128;2022-12-07T16:04:11;18.40;70.60
73322;DHT22;61549;37.044;22.128;2022-12-07T16:06:37;18.40;70.40
73322;DHT22;61549;37.044;22.128;2022-12-07T16:09:03;18.40;70.40
73322;DHT22;61549;37.044;22.128;2022-12-07T16:11:29;18.40;70.80
73322;DHT22;61549;37.044;22.128;2022-12-07T16:13:55;18.40;70.20
73322;DHT22;61549;37.044;22.128;2022-12-07T16:16:21;18.30;70.50
73322;DHT22;61549;37.044;22.128;2022-12-07T16:18:48;18.30;70.20
73322;DHT22;61549;37.044;22.128;2022-12-07T16:21:16;18.30;70.00
73322;DHT22;61549;37.044;22.128;2022-12-07T16:23:43;18.30;69.90
73322;DHT22;61549;37.044;22.128;2022-12-07T16:26:15;18.30;69.60
73322;DHT22;61549;37.044;22.128;2022-12-07T16:28:42;18.20;69.60
73322;DHT22;61549;37.044;22.128;2022-12-07T16:31:13;18.20;69.60
73322;DHT22;61549;37.044;22.128;2022-12-07T16:33:41;18.20;69.50
73322;DHT22;61549;37.044;22.128;2022-12-07T16:36:10;18.20;69.40
73322;DHT22;61549;37.044;22.128;2022-12-07T16:38:37;18.20;69.60
73322;DHT22;61549;37.044;22.128;2022-12-07T16:41:05;18.20;69.60
73322;DHT22;61549;37.044;22.128;2022-12-07T16:43:31;18.20;69.50
73322;DHT22;61549;37.044;22.128;2022-12-07T16:45:56;18.10;69.30
73322;DHT22;61549;37.044;22.128;2022-12-07T16:48:22;18.10;69.10
73322;DHT22;61549;37.044;22.128;2022-12-07T16:50:48;18.10;68.90
73322;DHT22;61549;37.044;22.128;2022-12-07T16:53:15;18.10;68.80
73322;DHT22;61549;37.044;22.128;2022-12-07T16:55:43;18.10;68.60
73322;DHT22;61549;37.044;22.128;2022-12-07T16:58:10;18.10;68.40
73322;DHT22;61549;37.044;22.128;2022-12-07T17:00:36;18.00;68.20
73322;DHT22;61549;37.044;22.128;2022-12-07T17:03:04;18.00;67.90
73322;DHT22;61549;37.044;22.128;2022-12-07T17:05:30;18.00;67.80
73322;DHT22;61549;37.044;22.128;2022-12-07T17:07:56;18.00;67.70
73322;DHT22;61549;37.044;22.128;2022-12-07T17:10:23;17.90;67.40
73322;DHT22;61549;37.044;22.128;2022-12-07T17:12:50;17.90;67.10
73322;DHT22;61549;37.044;22.128;2022-12-07T17:15:16;17.90;66.80
73322;DHT22;61549;37.044;22.128;2022-12-07T17:17:56;17.90;67.00
73322;DHT22;61549;37.044;22.128;2022-12-07T17:20:24;17.90;66.90
73322;DHT22;61549;37.044;22.128;2022-12-07T17:22:51;17.90;67.00
73322;DHT22;61549;37.044;22.128;2022-12-07T17:25:20;17.80;67.00
73322;DHT22;61549;37.044;22.128;2022-12-07T17:27:46;17.80;66.90
73322;DHT22;61549;37.044;22.128;2022-12-07T17:30:13;17.80;66.70
73322;DHT22;61549;37.044;22.128;2022-12-07T17:32:39;17.70;66.60
73322;DHT22;61549;37.044;22.128;2022-12-07T17:35:05;17.70;66.80
73322;DHT22;61549;37.044;22.128;2022-12-07T17:37:32;17.70;66.90
73322;DHT22;61549;37.044;22.128;2022-12-07T17:39:58;17.60;66.90
73322;DHT22;61549;37.044;22.128;2022-12-07T17:42:25;17.60;66.80
73322;DHT22;61549;37.044;22.128;2022-12-07T17:45:06;17.60;66.50
73322;DHT22;61549;37.044;22.128;2022-12-07T17:47:35;17.60;66.40
73322;DHT22;61549;37.044;22.128;2022-12-07T17:50:01;17.60;66.80